createdAt,value
2019-05-26T00:00:46.023Z,6.10
2019-05-26T00:03:14.613Z,4.00
2019-05-26T00:05:43.121Z,4.60
2019-05-26T00:08:11.745Z,4.20
2019-05-26T00:10:41.310Z,7.63
2019-05-26T00:13:09.741Z,3.60
2019-05-26T00:15:38.182Z,3.63
2019-05-26T00:18:06.792Z,4.77
2019-05-26T00:20:35.422Z,6.20
2019-05-26T00:23:03.855Z,6.10
2019-05-26T00:25:32.296Z,3.57
2019-05-26T00:28:01.988Z,5.17
2019-05-26T00:30:30.533Z,4.00
2019-05-26T00:32:58.962Z,3.60
2019-05-26T00:35:27.395Z,5.70
2019-05-26T00:37:55.844Z,4.23
2019-05-26T00:40:24.510Z,6.27
2019-05-26T00:42:52.963Z,4.70
2019-05-26T00:45:22.270Z,4.13
2019-05-26T00:47:50.698Z,4.70
2019-05-26T00:50:20.188Z,4.00
2019-05-26T00:52:48.616Z,3.60
2019-05-26T00:55:18.177Z,3.70
2019-05-26T00:57:46.848Z,4.37
2019-05-26T01:00:17.481Z,5.37
2019-05-26T01:02:46.058Z,3.90
2019-05-26T01:05:16.022Z,3.67
2019-05-26T01:07:44.469Z,4.07
2019-05-26T01:10:13.927Z,6.00
2019-05-26T01:12:42.362Z,5.33
2019-05-26T01:15:11.061Z,5.20
2019-05-26T01:17:39.497Z,4.50
2019-05-26T01:20:08.369Z,5.10
2019-05-26T01:22:36.807Z,5.60
2019-05-26T01:25:08.487Z,3.97
2019-05-26T01:27:37.294Z,4.50
2019-05-26T01:30:07.766Z,9.37
2019-05-26T01:32:36.215Z,9.00
2019-05-26T01:35:06.522Z,4.77
2019-05-26T01:37:35.626Z,5.20
2019-05-26T01:40:07.375Z,4.70
2019-05-26T01:42:35.881Z,4.57
2019-05-26T01:45:09.049Z,5.00
2019-05-26T01:47:37.759Z,4.43
2019-05-26T01:50:08.598Z,4.30
2019-05-26T01:52:37.053Z,4.60
2019-05-26T01:55:06.522Z,4.70
2019-05-26T01:57:34.976Z,5.20
2019-05-26T02:00:04.846Z,4.87
2019-05-26T02:02:33.604Z,5.50
2019-05-26T02:05:02.315Z,5.13
2019-05-26T02:07:32.607Z,4.33
2019-05-26T02:10:01.113Z,5.00
2019-05-26T02:12:29.554Z,5.03
2019-05-26T02:14:57.978Z,4.23
2019-05-26T02:17:26.510Z,4.43
2019-05-26T02:19:54.925Z,4.40
2019-05-26T02:22:23.459Z,3.87
2019-05-26T02:24:51.894Z,4.63
2019-05-26T02:27:20.331Z,4.00
2019-05-26T02:29:48.772Z,3.83
2019-05-26T02:32:17.274Z,3.10
2019-05-26T02:34:45.706Z,3.67
2019-05-26T02:37:14.145Z,3.47
2019-05-26T02:39:42.607Z,3.43
2019-05-26T02:42:11.029Z,3.33
2019-05-26T02:44:39.461Z,2.87
2019-05-26T02:47:08.074Z,3.20
2019-05-26T02:49:36.508Z,3.13
2019-05-26T02:52:05.086Z,3.50
2019-05-26T02:54:33.686Z,3.10
2019-05-26T02:57:02.121Z,3.67
2019-05-26T02:59:30.630Z,3.43
2019-05-26T03:02:03.591Z,3.70
2019-05-26T03:04:30.395Z,3.53
2019-05-26T03:07:00.253Z,3.47
2019-05-26T03:09:30.833Z,3.60
2019-05-26T03:12:01.312Z,3.57
2019-05-26T03:14:33.064Z,4.13
2019-05-26T03:17:02.732Z,4.20
2019-05-26T03:19:35.703Z,4.00
2019-05-26T03:22:04.789Z,4.50
2019-05-26T03:24:35.286Z,5.30
2019-05-26T03:27:03.735Z,5.10
2019-05-26T03:29:32.162Z,4.27
2019-05-26T03:32:00.587Z,5.33
2019-05-26T03:34:29.037Z,5.20
2019-05-26T03:36:57.537Z,4.80
2019-05-26T03:39:43.628Z,5.57
2019-05-26T03:41:56.134Z,5.90
2019-05-26T03:44:24.614Z,5.50
2019-05-26T03:46:53.219Z,6.93
2019-05-26T03:49:21.834Z,7.00
2019-05-26T03:51:51.058Z,6.50
2019-05-26T03:54:21.581Z,7.30
2019-05-26T03:56:52.406Z,6.43
2019-05-26T03:59:20.904Z,6.60
2019-05-26T04:01:49.350Z,7.60
2019-05-26T04:04:17.794Z,8.40
2019-05-26T04:06:46.231Z,7.37
2019-05-26T04:09:14.674Z,8.40
2019-05-26T04:11:43.179Z,8.30
2019-05-26T04:14:11.625Z,8.27
2019-05-26T04:16:40.053Z,7.30
2019-05-26T04:19:08.488Z,9.20
2019-05-26T04:21:37.009Z,8.17
2019-05-26T04:24:07.746Z,8.00
2019-05-26T04:26:36.192Z,6.97
2019-05-26T04:29:04.755Z,8.50
2019-05-26T04:31:33.186Z,7.93
2019-05-26T04:34:01.618Z,6.93
2019-05-26T04:36:30.162Z,6.50
2019-05-26T04:38:58.694Z,6.10
2019-05-26T04:41:27.309Z,6.60
2019-05-26T04:43:55.754Z,7.37
2019-05-26T04:46:25.606Z,6.67
2019-05-26T04:48:54.042Z,6.10
2019-05-26T04:51:22.583Z,5.70
2019-05-26T04:53:51.014Z,5.93
2019-05-26T04:56:19.483Z,6.00
2019-05-26T04:58:47.906Z,5.30
2019-05-26T05:01:16.347Z,5.90
2019-05-26T05:03:44.867Z,5.80
2019-05-26T05:06:13.302Z,5.30
2019-05-26T05:08:41.741Z,5.43
2019-05-26T05:11:10.217Z,5.00
2019-05-26T05:13:38.655Z,5.17
2019-05-26T05:16:07.116Z,6.00
2019-05-26T05:18:35.540Z,5.80
2019-05-26T05:21:04.023Z,7.30
2019-05-26T05:23:32.465Z,4.90
2019-05-26T05:26:00.885Z,6.20
2019-05-26T05:28:29.326Z,5.90
2019-05-26T05:30:57.755Z,4.33
2019-05-26T05:33:26.997Z,5.00
2019-05-26T05:35:55.430Z,5.87
2019-05-26T05:38:23.857Z,4.93
2019-05-26T05:40:59.387Z,6.87
2019-05-26T05:43:22.516Z,5.27
2019-05-26T05:45:50.942Z,5.10
2019-05-26T05:48:19.381Z,5.83
2019-05-26T05:50:47.814Z,5.80
2019-05-26T05:53:16.250Z,5.43
2019-05-26T05:55:44.683Z,5.20
2019-05-26T05:58:13.119Z,5.30
2019-05-26T06:00:41.571Z,5.53
2019-05-26T06:03:10.076Z,5.50
2019-05-26T06:05:38.821Z,7.47
2019-05-26T06:08:07.259Z,5.50
2019-05-26T06:10:35.771Z,6.23
2019-05-26T06:13:04.262Z,6.00
2019-05-26T06:15:32.681Z,6.00
2019-05-26T06:18:01.123Z,6.30
2019-05-26T06:20:29.549Z,6.67
2019-05-26T06:22:58.001Z,7.00
2019-05-26T06:25:26.556Z,6.27
2019-05-26T06:27:55.030Z,6.10
2019-05-26T06:30:24.491Z,6.00
2019-05-26T06:32:52.949Z,5.97
2019-05-26T06:35:21.382Z,6.20
2019-05-26T06:37:49.822Z,6.93
2019-05-26T06:40:19.222Z,6.53
2019-05-26T06:42:47.658Z,6.97
2019-05-26T06:45:16.822Z,6.40
2019-05-26T06:47:45.261Z,7.50
2019-05-26T06:50:14.235Z,7.13
2019-05-26T06:52:42.778Z,7.50
2019-05-26T06:55:12.274Z,7.53
2019-05-26T06:57:40.782Z,6.80
2019-05-26T07:00:09.910Z,8.30
2019-05-26T07:02:38.342Z,8.10
2019-05-26T07:05:08.493Z,8.00
2019-05-26T07:07:37.033Z,7.83
2019-05-26T07:10:08.645Z,7.70
2019-05-26T07:12:37.343Z,9.07
2019-05-26T07:15:09.088Z,9.67
2019-05-26T07:17:37.518Z,7.60
2019-05-26T07:20:07.661Z,9.20
2019-05-26T07:22:36.108Z,10.57
2019-05-26T07:25:09.769Z,9.80
2019-05-26T07:27:39.773Z,9.37
2019-05-26T07:30:11.654Z,10.10
2019-05-26T07:32:40.654Z,9.57
2019-05-26T07:35:09.671Z,9.40
2019-05-26T07:37:38.153Z,10.13
2019-05-26T07:40:07.335Z,10.40
2019-05-26T07:42:35.770Z,10.13
2019-05-26T07:45:06.316Z,8.90
2019-05-26T07:47:35.028Z,9.47
2019-05-26T07:50:08.169Z,9.97
2019-05-26T07:52:36.605Z,12.57
2019-05-26T07:55:06.752Z,9.40
2019-05-26T07:57:35.190Z,9.30
2019-05-26T08:00:05.963Z,9.33
2019-05-26T08:02:34.407Z,10.07
2019-05-26T08:05:04.373Z,10.13
2019-05-26T08:07:32.825Z,8.83
2019-05-26T08:10:01.364Z,10.17
2019-05-26T08:12:30.827Z,9.90
2019-05-26T08:14:59.706Z,9.57
2019-05-26T08:17:28.322Z,11.50
2019-05-26T08:19:56.753Z,7.93
2019-05-26T08:22:25.197Z,9.50
2019-05-26T08:24:53.647Z,10.67
2019-05-26T08:27:22.174Z,9.00
2019-05-26T08:29:52.234Z,8.60
2019-05-26T08:32:20.757Z,8.20
2019-05-26T08:34:49.194Z,9.30
2019-05-26T08:37:17.629Z,9.40
2019-05-26T08:39:48.449Z,10.40
2019-05-26T08:42:26.747Z,9.57
2019-05-26T08:44:46.630Z,10.23
2019-05-26T08:47:15.081Z,9.27
2019-05-26T08:49:43.585Z,8.67
2019-05-26T08:52:12.209Z,9.03
2019-05-26T08:54:40.755Z,9.87
2019-05-26T08:57:09.202Z,8.83
2019-05-26T08:59:37.634Z,9.70
2019-05-26T09:02:06.084Z,10.07
2019-05-26T09:04:34.510Z,9.63
2019-05-26T09:07:02.951Z,9.73
2019-05-26T09:09:31.388Z,10.40
2019-05-26T09:11:59.834Z,9.70
2019-05-26T09:14:28.390Z,10.10
2019-05-26T09:16:56.912Z,9.50
2019-05-26T09:19:25.346Z,11.60
2019-05-26T09:21:53.958Z,9.03
2019-05-26T09:24:24.183Z,9.17
2019-05-26T09:26:52.859Z,9.20
2019-05-26T09:29:21.427Z,11.33
2019-05-26T09:31:52.218Z,10.90
2019-05-26T09:34:20.895Z,10.03
2019-05-26T09:36:51.605Z,10.50
2019-05-26T09:39:20.260Z,10.60
2019-05-26T09:41:48.773Z,11.73
2019-05-26T09:44:17.318Z,12.07
2019-05-26T09:46:45.852Z,11.07
2019-05-26T09:49:14.367Z,11.30
2019-05-26T09:51:42.825Z,11.10
2019-05-26T09:54:12.917Z,12.93
2019-05-26T09:56:41.647Z,10.93
2019-05-26T09:59:10.178Z,10.90
2019-05-26T10:01:38.983Z,11.90
2019-05-26T10:04:07.750Z,10.53
2019-05-26T10:06:36.295Z,10.60
2019-05-26T10:09:07.592Z,11.87
2019-05-26T10:11:36.177Z,12.93
2019-05-26T10:14:06.366Z,13.75
2019-05-26T10:16:34.851Z,13.30
2019-05-26T10:19:03.477Z,13.57
2019-05-26T10:21:31.947Z,14.60
2019-05-26T10:24:00.419Z,16.33
2019-05-26T10:26:28.915Z,15.97
2019-05-26T10:29:00.434Z,16.13
2019-05-26T10:31:27.535Z,15.30
2019-05-26T10:33:56.038Z,15.47
2019-05-26T10:36:24.489Z,15.73
2019-05-26T10:38:52.947Z,16.70
2019-05-26T10:41:21.679Z,16.03
2019-05-26T10:43:50.174Z,14.43
2019-05-26T10:46:18.625Z,13.70
2019-05-26T10:48:47.095Z,15.17
2019-05-26T10:51:15.724Z,16.20
2019-05-26T10:53:44.140Z,14.70
2019-05-26T10:56:12.829Z,13.70
2019-05-26T10:58:41.274Z,15.83
2019-05-26T11:01:09.783Z,17.03
2019-05-26T11:03:38.221Z,17.37
2019-05-26T11:06:06.681Z,16.27
2019-05-26T11:08:35.105Z,19.10
2019-05-26T11:11:03.562Z,21.20
2019-05-26T11:13:34.695Z,18.50
2019-05-26T11:16:03.147Z,22.63
2019-05-26T11:18:31.568Z,21.40
2019-05-26T11:21:00.217Z,21.27
2019-05-26T11:23:28.661Z,21.67
2019-05-26T11:25:57.110Z,23.50
2019-05-26T11:28:25.547Z,23.03
2019-05-26T11:30:54.022Z,22.10
2019-05-26T11:33:22.538Z,24.00
2019-05-26T11:35:51.149Z,21.20
2019-05-26T11:38:19.581Z,23.20
2019-05-26T11:40:48.332Z,19.10
2019-05-26T11:43:17.586Z,19.60
2019-05-26T11:45:46.189Z,19.80
2019-05-26T11:48:14.625Z,21.30
2019-05-26T11:50:43.105Z,18.47
2019-05-26T11:53:11.535Z,19.43
2019-05-26T11:55:39.979Z,21.97
2019-05-26T11:58:15.297Z,18.40
2019-05-26T12:00:44.529Z,18.50
2019-05-26T12:03:15.681Z,16.53
2019-05-26T12:05:44.109Z,18.70
2019-05-26T12:08:12.659Z,15.80
2019-05-26T12:10:41.121Z,17.33
2019-05-26T12:13:09.573Z,12.17
2019-05-26T12:15:38.004Z,15.47
2019-05-26T12:18:06.453Z,14.70
2019-05-26T12:20:35.269Z,14.40
2019-05-26T12:23:03.744Z,13.37
2019-05-26T12:25:32.218Z,14.30
2019-05-26T12:28:00.696Z,13.70
2019-05-26T12:30:29.210Z,15.00
2019-05-26T12:32:57.708Z,15.83
2019-05-26T12:35:27.796Z,15.23
2019-05-26T12:37:56.357Z,13.93
2019-05-26T12:40:24.930Z,16.00
2019-05-26T12:42:53.734Z,11.30
2019-05-26T12:45:23.080Z,16.03
2019-05-26T12:47:51.721Z,14.53
2019-05-26T12:50:20.150Z,13.07
2019-05-26T12:52:48.819Z,14.50
2019-05-26T12:55:17.435Z,13.13
2019-05-26T12:57:45.905Z,13.20
2019-05-26T13:00:15.385Z,12.53
2019-05-26T13:02:43.856Z,11.50
2019-05-26T13:05:12.697Z,11.93
2019-05-26T13:07:42.553Z,12.77
2019-05-26T13:10:12.240Z,12.70
2019-05-26T13:12:40.675Z,12.00
2019-05-26T13:15:11.117Z,11.90
2019-05-26T13:17:39.566Z,12.77
2019-05-26T13:20:10.179Z,11.67
2019-05-26T13:22:41.620Z,10.80
2019-05-26T13:25:11.459Z,10.93
2019-05-26T13:27:41.025Z,10.67
2019-05-26T13:30:12.236Z,11.77
2019-05-26T13:32:40.667Z,10.50
2019-05-26T13:35:09.555Z,10.33
2019-05-26T13:37:39.718Z,10.77
2019-05-26T13:40:09.077Z,10.40
2019-05-26T13:42:37.525Z,9.13
2019-05-26T13:45:21.867Z,9.63
2019-05-26T13:47:40.182Z,10.43
2019-05-26T13:50:09.376Z,10.90
2019-05-26T13:52:37.823Z,10.60
2019-05-26T13:55:10.074Z,10.93
2019-05-26T13:57:38.927Z,9.10
2019-05-26T14:00:09.659Z,11.13
2019-05-26T14:02:38.323Z,9.17
2019-05-26T14:05:07.910Z,9.73
2019-05-26T14:07:40.557Z,9.07
2019-05-26T14:10:09.438Z,10.10
2019-05-26T14:12:37.863Z,8.93
2019-05-26T14:15:08.145Z,9.30
2019-05-26T14:17:38.434Z,8.60
2019-05-26T14:20:08.666Z,8.03
2019-05-26T14:22:37.143Z,8.63
2019-05-26T14:25:06.913Z,7.50
2019-05-26T14:27:35.533Z,7.43
2019-05-26T14:30:06.732Z,7.30
2019-05-26T14:32:35.179Z,7.80
2019-05-26T14:35:05.438Z,6.50
2019-05-26T14:37:33.865Z,7.47
2019-05-26T14:40:02.492Z,6.87
2019-05-26T14:42:30.918Z,6.90
2019-05-26T14:45:03.904Z,8.00
2019-05-26T14:47:31.337Z,7.50
2019-05-26T14:49:59.770Z,7.13
2019-05-26T14:52:28.202Z,7.40
2019-05-26T14:54:56.725Z,6.27
2019-05-26T14:57:25.157Z,6.00
2019-05-26T14:59:53.968Z,6.60
2019-05-26T15:02:22.554Z,6.23
2019-05-26T15:04:51.081Z,8.37
2019-05-26T15:07:19.644Z,9.23
2019-05-26T15:09:48.405Z,7.73
2019-05-26T15:12:16.829Z,7.77
2019-05-26T15:14:45.265Z,7.90
2019-05-26T15:17:13.707Z,8.03
2019-05-26T15:19:42.145Z,9.07
2019-05-26T15:22:10.585Z,7.10
2019-05-26T15:24:39.046Z,7.90
2019-05-26T15:27:07.591Z,8.50
2019-05-26T15:29:36.081Z,6.60
2019-05-26T15:32:04.898Z,8.23
2019-05-26T15:34:33.454Z,8.40
2019-05-26T15:37:01.891Z,8.20
2019-05-26T15:39:30.327Z,7.37
2019-05-26T15:41:58.915Z,8.70
2019-05-26T15:44:27.410Z,8.00
2019-05-26T15:46:56.311Z,7.83
2019-05-26T15:49:24.762Z,8.60
2019-05-26T15:51:53.204Z,8.20
2019-05-26T15:54:21.718Z,9.63
2019-05-26T15:56:50.159Z,9.07
2019-05-26T15:59:18.792Z,8.90
2019-05-26T16:01:47.435Z,8.30
2019-05-26T16:04:15.891Z,9.70
2019-05-26T16:06:44.316Z,7.90
2019-05-26T16:09:12.761Z,7.90
2019-05-26T16:11:43.414Z,9.17
2019-05-26T16:14:11.426Z,9.97
2019-05-26T16:16:41.755Z,8.70
2019-05-26T16:19:10.024Z,8.97
2019-05-26T16:21:38.462Z,8.83
2019-05-26T16:24:07.170Z,8.63
2019-05-26T16:26:35.624Z,8.47
2019-05-26T16:29:05.601Z,8.50
2019-05-26T16:31:35.775Z,7.73
2019-05-26T16:34:04.373Z,8.80
2019-05-26T16:36:32.806Z,7.93
2019-05-26T16:39:01.242Z,7.80
2019-05-26T16:41:29.678Z,7.73
2019-05-26T16:43:58.113Z,7.40
2019-05-26T16:46:26.723Z,8.37
2019-05-26T16:48:55.188Z,8.80
2019-05-26T16:51:23.621Z,7.10
2019-05-26T16:53:52.057Z,8.10
2019-05-26T16:56:20.494Z,8.30
2019-05-26T16:58:50.486Z,8.93
2019-05-26T17:01:18.942Z,9.30
2019-05-26T17:03:47.662Z,9.10
2019-05-26T17:06:16.112Z,10.40
2019-05-26T17:08:44.537Z,10.23
2019-05-26T17:11:12.977Z,10.53
2019-05-26T17:13:41.410Z,9.93
2019-05-26T17:16:09.853Z,11.37
2019-05-26T17:18:38.293Z,11.80
2019-05-26T17:21:06.734Z,11.43
2019-05-26T17:23:36.629Z,13.20
2019-05-26T17:26:05.396Z,14.40
2019-05-26T17:28:33.846Z,13.60
2019-05-26T17:31:02.334Z,13.40
2019-05-26T17:33:30.841Z,14.27
2019-05-26T17:35:59.291Z,12.70
2019-05-26T17:38:27.717Z,12.17
2019-05-26T17:40:56.234Z,11.80
2019-05-26T17:43:24.670Z,12.80
2019-05-26T17:45:53.120Z,12.73
2019-05-26T17:48:21.553Z,12.40
2019-05-26T17:50:51.681Z,11.80
2019-05-26T17:53:20.146Z,11.60
2019-05-26T17:55:48.591Z,10.50
2019-05-26T17:58:18.144Z,10.90
2019-05-26T18:00:48.155Z,11.70
2019-05-26T18:03:16.583Z,12.40
2019-05-26T18:05:45.027Z,11.33
2019-05-26T18:08:14.613Z,13.83
2019-05-26T18:10:44.256Z,13.87
2019-05-26T18:13:15.056Z,13.90
2019-05-26T18:15:43.542Z,13.20
2019-05-26T18:18:11.999Z,13.50
2019-05-26T18:20:40.437Z,13.67
2019-05-26T18:23:08.906Z,15.10
2019-05-26T18:25:37.342Z,13.90
2019-05-26T18:28:05.815Z,12.30
2019-05-26T18:30:34.318Z,12.80
2019-05-26T18:33:02.895Z,13.63
2019-05-26T18:35:32.796Z,12.30
2019-05-26T18:38:01.243Z,15.50
2019-05-26T18:40:30.791Z,15.57
2019-05-26T18:42:59.240Z,12.83
2019-05-26T18:45:27.676Z,9.50
2019-05-26T18:48:03.155Z,13.07
2019-05-26T18:50:26.261Z,12.60
2019-05-26T18:52:54.741Z,11.73
2019-05-26T18:55:23.174Z,12.03
2019-05-26T18:57:51.695Z,11.10
2019-05-26T19:00:21.104Z,8.60
2019-05-26T19:02:50.189Z,8.57
2019-05-26T19:05:32.458Z,8.00
2019-05-26T19:07:48.896Z,8.47
2019-05-26T19:10:19.736Z,6.40
2019-05-26T19:12:48.165Z,6.03
2019-05-26T19:15:16.934Z,5.10
2019-05-26T19:17:45.374Z,5.20
2019-05-26T19:20:16.496Z,2.90
2019-05-26T19:22:44.435Z,4.73
2019-05-26T19:25:13.211Z,3.83
2019-05-26T19:27:41.645Z,4.30
2019-05-26T19:30:12.116Z,4.03
2019-05-26T19:32:40.518Z,5.20
2019-05-26T19:35:09.788Z,4.10
2019-05-26T19:37:38.230Z,5.40
2019-05-26T19:40:08.821Z,5.30
2019-05-26T19:42:37.245Z,3.47
2019-05-26T19:45:06.930Z,4.63
2019-05-26T19:47:35.498Z,5.13
2019-05-26T19:50:06.774Z,4.53
2019-05-26T19:52:35.205Z,4.60
2019-05-26T19:55:07.245Z,4.90
2019-05-26T19:57:35.675Z,4.47
2019-05-26T20:00:08.184Z,4.17
2019-05-26T20:02:36.614Z,4.37
2019-05-26T20:05:07.182Z,4.50
2019-05-26T20:07:35.759Z,4.67
2019-05-26T20:10:06.728Z,5.40
2019-05-26T20:12:35.161Z,5.57
2019-05-26T20:15:05.370Z,5.20
2019-05-26T20:17:33.814Z,5.47
2019-05-26T20:20:02.259Z,4.93
2019-05-26T20:22:30.776Z,5.03
2019-05-26T20:24:59.237Z,6.67
2019-05-26T20:27:27.734Z,6.10
2019-05-26T20:29:56.172Z,6.40
2019-05-26T20:32:25.470Z,6.10
2019-05-26T20:34:53.909Z,6.80
2019-05-26T20:37:22.340Z,7.27
2019-05-26T20:39:50.774Z,6.50
2019-05-26T20:42:19.209Z,9.17
2019-05-26T20:44:48.219Z,8.13
2019-05-26T20:47:16.735Z,7.63
2019-05-26T20:49:46.098Z,8.00
2019-05-26T20:52:15.930Z,8.60
2019-05-26T20:54:44.386Z,8.00
2019-05-26T20:57:12.826Z,7.73
2019-05-26T20:59:41.376Z,7.60
2019-05-26T21:02:09.850Z,8.53
2019-05-26T21:04:38.269Z,7.83
2019-05-26T21:07:06.705Z,8.60
2019-05-26T21:09:35.154Z,9.30
2019-05-26T21:12:03.884Z,9.53
2019-05-26T21:14:32.782Z,10.03
2019-05-26T21:17:01.240Z,10.60
2019-05-26T21:19:29.695Z,10.63
2019-05-26T21:21:58.207Z,11.10
2019-05-26T21:24:26.745Z,11.97
2019-05-26T21:26:55.388Z,11.23
2019-05-26T21:29:23.831Z,24.00
2019-05-26T21:31:52.290Z,12.37
2019-05-26T21:34:21.421Z,13.40
2019-05-26T21:36:50.117Z,11.53
2019-05-26T21:39:18.623Z,13.00
2019-05-26T21:41:47.150Z,13.00
2019-05-26T21:44:15.627Z,12.23
2019-05-26T21:46:44.899Z,12.63
2019-05-26T21:49:13.334Z,10.93
2019-05-26T21:51:41.782Z,11.63
2019-05-26T21:54:10.226Z,11.20
2019-05-26T21:56:38.673Z,10.30
2019-05-26T21:59:07.103Z,9.37
2019-05-26T22:01:35.551Z,9.27
2019-05-26T22:04:04.355Z,9.43
2019-05-26T22:06:32.935Z,9.20
2019-05-26T22:09:01.370Z,9.43
2019-05-26T22:11:29.874Z,8.80
2019-05-26T22:13:58.913Z,10.00
2019-05-26T22:16:27.417Z,8.70
2019-05-26T22:18:59.949Z,8.67
2019-05-26T22:21:26.438Z,7.47
2019-05-26T22:23:54.877Z,6.90
2019-05-26T22:26:23.377Z,7.27
2019-05-26T22:28:51.832Z,6.57
2019-05-26T22:31:20.392Z,6.30
2019-05-26T22:33:48.825Z,5.90
2019-05-26T22:36:17.255Z,5.40
2019-05-26T22:38:45.691Z,5.40
2019-05-26T22:41:14.121Z,6.03
2019-05-26T22:43:42.558Z,5.80
2019-05-26T22:46:11.002Z,6.80
2019-05-26T22:48:39.494Z,4.57
2019-05-26T22:51:08.035Z,5.50
2019-05-26T22:53:36.466Z,5.07
2019-05-26T22:56:04.902Z,5.53
2019-05-26T22:58:33.346Z,4.73
2019-05-26T23:01:01.772Z,4.40
2019-05-26T23:03:30.205Z,5.10
2019-05-26T23:05:58.642Z,3.77
2019-05-26T23:08:27.085Z,3.40
2019-05-26T23:10:57.613Z,3.10
2019-05-26T23:13:26.094Z,3.33
2019-05-26T23:15:54.574Z,2.63
2019-05-26T23:18:23.248Z,2.83
2019-05-26T23:20:51.684Z,2.07
2019-05-26T23:23:20.118Z,2.70
2019-05-26T23:25:48.547Z,2.73
2019-05-26T23:28:16.978Z,3.03
2019-05-26T23:30:47.798Z,2.87
2019-05-26T23:33:16.293Z,2.50
2019-05-26T23:35:44.795Z,2.47
2019-05-26T23:38:13.298Z,2.37
2019-05-26T23:40:41.736Z,2.23
2019-05-26T23:43:10.160Z,2.70
2019-05-26T23:45:38.593Z,2.83
2019-05-26T23:48:07.021Z,2.10
2019-05-26T23:50:35.466Z,2.70
2019-05-26T23:53:03.984Z,3.30
2019-05-26T23:55:32.413Z,3.40
2019-05-26T23:58:00.842Z,2.80
